EGVO

RAF Odiham Airport

Odiham, United Kingdom
METAR EGVO 192150Z 26005KT 8000 -DZ FEW005 BKN008 15/15 Q1014 GRN BECMG BKN020 WHT
Observed Flight Rules
Sep-19 @ 21:50 UTC (49 minutes ago) Instrument Flight Rules
Wind Visibility Clouds Conditions
260° at 5 knots 7,998 meters
  • Few at 500' AGL
  • Broken at 800' AGL
  • Light Drizzle
Temperatures Readings
Current 15°C / 59°F
Dewpoint 15°C / 59°F
Humidity 100%
Altimeter 29.94" Hg
Pressure 1014 hPa
Elevation 123
METAR EGVO 192150Z 26005KT 8000 -DZ FEW005 BKN008 15/15 Q1014 GRN BECMG BKN020 WHT
Observed Flight Rules
Sep-19 @ 21:50 UTC
(49 minutes ago)
IFR
Wind Visibility
260° at 5 knots 7,998 meters
Clouds
  • Few at 500' AGL
  • Broken at 800' AGL
Conditions
  • Light Drizzle
Temperature Dewpoint
15°C / 59°F 15°C / 59°F
Humidity Altimeter Pressure
100% 29.94" Hg 1014 hPa